createdAt,value
2019-06-01T21:19:42.056Z,17.14
2019-06-01T21:22:09.730Z,17.09
2019-06-01T21:24:37.435Z,16.98
2019-06-01T21:27:05.210Z,16.93
2019-06-01T21:29:32.777Z,16.94
2019-06-01T21:32:00.307Z,16.98
2019-06-01T21:34:28.054Z,17.05
2019-06-01T21:36:55.781Z,17.02
2019-06-01T21:39:23.563Z,16.79
2019-06-01T21:41:51.202Z,16.67
2019-06-01T21:44:19.482Z,16.61
2019-06-01T21:46:47.225Z,16.39
2019-06-01T21:49:15.580Z,16.47
2019-06-01T21:51:43.881Z,16.82
2019-06-01T21:54:11.375Z,16.73
2019-06-01T21:56:38.881Z,16.38
2019-06-01T21:59:06.435Z,16.27
2019-06-01T22:01:34.138Z,16.28
2019-06-01T22:04:01.764Z,16.16
2019-06-01T22:06:29.488Z,16.13
2019-06-01T22:08:59.297Z,16.45
2019-06-01T22:11:27.523Z,16.33
2019-06-01T22:13:55.099Z,16.25
2019-06-01T22:16:23.669Z,16.23
2019-06-01T22:18:51.406Z,16.13
2019-06-01T22:21:19.691Z,16.10
2019-06-01T22:23:47.188Z,16.19
2019-06-01T22:26:14.709Z,16.24
2019-06-01T22:28:42.620Z,16.20
2019-06-01T22:31:10.122Z,16.32
2019-06-01T22:33:37.685Z,16.45
2019-06-01T22:36:05.254Z,16.76
2019-06-01T22:38:32.759Z,16.78
2019-06-01T22:41:00.284Z,16.71
2019-06-01T22:43:45.208Z,16.95
2019-06-01T22:45:57.103Z,16.93
2019-06-01T22:48:24.669Z,16.63
2019-06-01T22:50:52.261Z,16.57
2019-06-01T22:53:19.942Z,16.40
2019-06-01T22:55:47.539Z,16.44
2019-06-01T22:58:15.199Z,16.74
2019-06-01T23:00:42.758Z,16.84
2019-06-01T23:03:10.254Z,16.86
2019-06-01T23:05:37.898Z,16.95
2019-06-01T23:08:05.438Z,16.67
2019-06-01T23:10:35.449Z,16.48
2019-06-01T23:13:02.592Z,16.35
2019-06-01T23:15:30.078Z,16.27
2019-06-01T23:17:57.561Z,16.17
2019-06-01T23:20:25.841Z,16.38
2019-06-01T23:22:53.342Z,16.27
2019-06-01T23:25:20.868Z,16.04
2019-06-01T23:27:48.413Z,15.85
2019-06-01T23:30:15.904Z,15.84
2019-06-01T23:32:43.550Z,15.67
2019-06-01T23:35:11.022Z,15.62
2019-06-01T23:37:38.571Z,15.61
2019-06-01T23:40:06.478Z,15.71
2019-06-01T23:42:33.934Z,15.75
2019-06-01T23:45:01.416Z,15.68
2019-06-01T23:47:29.370Z,15.55
2019-06-01T23:49:56.905Z,15.49
2019-06-01T23:52:25.470Z,15.36
2019-06-01T23:54:53.044Z,15.34
2019-06-01T23:57:20.619Z,15.30
2019-06-01T23:59:48.103Z,15.36
